Time;durP1;ratioP1;P1;durP2;ratioP2;P2;SDS_P1;SDS_P2;PMS_P1;PMS_P2;Temp;Humidity;BMP_temperature;BMP_pressure;BME280_temperature;BME280_humidity;BME280_pressure;Samples;Min_cycle;Max_cycle;Signal;HPM_P1;HPM_P2
2024/02/29 00:00:12;;;;;;;34.27;16.83;;;;;;;2.11;100.00;101653.69;5030093;28;20072;-64
2024/02/29 00:02:38;;;;;;;34.70;16.13;;;;;;;2.06;100.00;101630.28;5036362;28;20276;-65
2024/02/29 00:05:12;;;;;;;38.13;17.17;;;;;;;2.09;100.00;101635.38;5038303;28;20299;-64
2024/02/29 00:07:41;;;;;;;33.47;14.67;;;;;;;2.07;100.00;101624.09;5016210;28;20392;-66
2024/02/29 00:10:08;;;;;;;42.08;17.85;;;;;;;1.92;100.00;101590.81;5043453;28;20315;-66
2024/02/29 00:12:33;;;;;;;32.87;16.20;;;;;;;2.14;100.00;101640.38;5035562;28;20164;-67
2024/02/29 00:14:59;;;;;;;40.53;17.23;;;;;;;2.24;100.00;101644.16;5045562;28;20382;-66
2024/02/29 00:17:24;;;;;;;41.40;16.97;;;;;;;2.24;100.00;101635.41;5044789;28;20124;-68
2024/02/29 00:19:50;;;;;;;36.57;16.57;;;;;;;2.32;100.00;101649.00;5040162;28;20526;-66
2024/02/29 00:22:15;;;;;;;37.30;16.83;;;;;;;2.16;100.00;101614.84;5043063;28;20045;-68
2024/02/29 00:24:41;;;;;;;35.03;15.60;;;;;;;2.14;100.00;101609.69;5040542;28;20120;-69
2024/02/29 00:27:07;;;;;;;40.83;17.20;;;;;;;2.31;100.00;101632.34;5035985;28;20057;-67
2024/02/29 00:29:34;;;;;;;38.80;16.53;;;;;;;2.14;100.00;101625.44;5035916;28;20072;-66
2024/02/29 00:32:02;;;;;;;51.63;19.73;;;;;;;2.10;100.00;101623.94;5037289;28;20279;-64
2024/02/29 00:34:28;;;;;;;37.90;17.08;;;;;;;2.08;100.00;101612.66;5042339;28;20279;-64
2024/02/29 00:36:54;;;;;;;43.03;17.40;;;;;;;2.16;100.00;101627.97;5037872;28;20052;-66
2024/02/29 00:39:20;;;;;;;40.67;17.40;;;;;;;2.13;100.00;101618.50;5039278;28;20649;-66
2024/02/29 00:41:47;;;;;;;40.73;18.17;;;;;;;2.15;100.00;101650.78;5040908;28;20805;-64
2024/02/29 00:44:13;;;;;;;43.17;16.93;;;;;;;1.98;100.00;101637.75;5040194;28;20147;-66
2024/02/29 00:46:39;;;;;;;39.50;18.03;;;;;;;2.10;100.00;101657.25;5037532;28;20839;-68
2024/02/29 00:49:05;;;;;;;57.97;26.70;;;;;;;2.13;100.00;101659.69;5045037;28;20041;-64
2024/02/29 00:51:31;;;;;;;41.50;18.60;;;;;;;1.92;100.00;101626.72;5044830;28;20083;-65
2024/02/29 00:53:56;;;;;;;44.27;19.57;;;;;;;2.08;100.00;101652.06;5042714;28;20296;-67
2024/02/29 00:56:22;;;;;;;44.30;16.73;;;;;;;1.98;100.00;101650.88;5033408;28;20787;-67
2024/02/29 00:58:47;;;;;;;43.47;18.63;;;;;;;1.98;100.00;101635.09;5039832;28;20494;-65
2024/02/29 01:01:13;;;;;;;48.70;20.20;;;;;;;2.24;100.00;101661.69;5040805;28;20037;-67
2024/02/29 01:03:39;;;;;;;40.77;16.93;;;;;;;2.38;100.00;101667.03;5038562;28;20102;-67
2024/02/29 01:06:04;;;;;;;31.97;16.43;;;;;;;2.29;100.00;101657.03;5038095;28;20049;-65
2024/02/29 01:08:30;;;;;;;36.40;16.67;;;;;;;2.23;100.00;101644.25;5037526;28;20120;-67
2024/02/29 01:10:56;;;;;;;34.90;16.50;;;;;;;2.32;100.00;101680.53;5040377;28;20501;-68
2024/02/29 01:13:21;;;;;;;39.40;17.23;;;;;;;2.24;100.00;101662.53;5043055;28;20073;-66
2024/02/29 01:15:49;;;;;;;34.20;15.50;;;;;;;2.40;100.00;101667.78;5043361;28;20052;-68
2024/02/29 01:18:15;;;;;;;46.13;17.67;;;;;;;2.18;100.00;101652.38;5047618;28;20295;-64
2024/02/29 01:20:40;;;;;;;34.97;15.93;;;;;;;2.16;100.00;101649.84;5043561;28;20705;-67
2024/02/29 01:23:06;;;;;;;43.33;19.63;;;;;;;2.21;100.00;101667.13;5026742;28;20296;-68
2024/02/29 01:25:32;;;;;;;39.27;18.27;;;;;;;2.10;100.00;101660.72;5038157;28;20393;-67
2024/02/29 01:27:58;;;;;;;37.70;19.03;;;;;;;1.90;100.00;101637.31;5040106;28;20132;-67
2024/02/29 01:30:23;;;;;;;41.27;19.00;;;;;;;1.62;100.00;101603.03;5041204;28;20466;-65
2024/02/29 01:32:50;;;;;;;33.37;16.47;;;;;;;2.06;100.00;101661.81;5043549;28;20049;-65
2024/02/29 01:35:15;;;;;;;39.50;18.83;;;;;;;2.17;100.00;101655.94;5045298;28;20295;-67
2024/02/29 01:37:41;;;;;;;44.97;21.53;;;;;;;2.28;100.00;101666.69;5042203;28;20140;-64
2024/02/29 01:40:08;;;;;;;40.93;20.03;;;;;;;2.00;100.00;101633.25;5025832;28;20045;-66
2024/02/29 01:42:33;;;;;;;48.77;22.83;;;;;;;1.87;100.00;101634.88;5046676;28;20642;-67
2024/02/29 01:44:59;;;;;;;40.10;18.63;;;;;;;2.09;100.00;101672.16;5042415;28;20037;-65
2024/02/29 01:47:26;;;;;;;38.63;18.43;;;;;;;2.11;100.00;101670.28;5042385;28;20035;-66
2024/02/29 01:50:02;;;;;;;36.47;15.10;;;;;;;2.02;100.00;101651.53;5043646;28;20033;-66
2024/02/29 01:52:33;;;;;;;31.97;14.33;;;;;;;1.96;100.00;101655.38;5040158;28;20288;-67
2024/02/29 01:54:59;;;;;;;30.30;16.15;;;;;;;2.01;100.00;101665.63;5017784;28;20300;-65
2024/02/29 01:57:25;;;;;;;34.73;15.20;;;;;;;2.01;100.00;101668.25;5034709;28;20049;-64
2024/02/29 01:59:51;;;;;;;33.93;15.13;;;;;;;2.15;100.00;101669.19;5044983;28;20099;-65
2024/02/29 02:02:17;;;;;;;35.30;15.87;;;;;;;2.25;100.00;101671.28;5041789;28;20287;-65
2024/02/29 02:04:43;;;;;;;32.90;15.37;;;;;;;2.09;100.00;101648.50;5043057;28;20779;-66
2024/02/29 02:07:09;;;;;;;29.53;13.90;;;;;;;2.15;100.00;101663.91;5040365;28;20341;-68
2024/02/29 02:09:35;;;;;;;28.77;14.83;;;;;;;2.15;100.00;101668.34;5048003;28;20048;-66
2024/02/29 02:12:02;;;;;;;30.73;14.50;;;;;;;2.03;100.00;101658.53;5047651;28;20648;-64
2024/02/29 02:14:27;;;;;;;32.40;13.97;;;;;;;2.06;100.00;101664.44;5042154;28;20382;-67
2024/02/29 02:16:53;;;;;;;34.60;15.20;;;;;;;2.04;100.00;101657.59;5043848;28;20359;-67
2024/02/29 02:19:19;;;;;;;25.17;11.57;;;;;;;2.05;100.00;101657.50;5044843;28;20065;-68
2024/02/29 02:21:45;;;;;;;29.17;13.20;;;;;;;2.08;100.00;101667.00;5040010;28;20540;-66
2024/02/29 02:24:11;;;;;;;30.73;14.10;;;;;;;2.09;100.00;101655.53;5042606;28;20378;-65
2024/02/29 02:26:36;;;;;;;23.40;12.40;;;;;;;1.74;100.00;101590.06;5043286;28;20107;-65
2024/02/29 02:29:04;;;;;;;27.27;12.87;;;;;;;2.12;100.00;101648.34;5048733;28;20049;-67
2024/02/29 02:31:30;;;;;;;30.27;13.90;;;;;;;1.76;100.00;101598.72;5043829;28;20047;-66
2024/02/29 02:33:56;;;;;;;26.90;13.40;;;;;;;1.95;100.00;101640.53;5040268;28;20347;-65
2024/02/29 02:36:22;;;;;;;28.80;13.43;;;;;;;2.03;100.00;101646.22;5048403;28;20520;-65
2024/02/29 02:38:48;;;;;;;24.43;11.87;;;;;;;1.76;100.00;101595.25;5046497;28;20286;-66
2024/02/29 02:41:14;;;;;;;28.53;12.67;;;;;;;2.02;100.00;101636.63;5040258;28;20303;-64
2024/02/29 02:43:39;;;;;;;23.77;12.60;;;;;;;1.98;100.00;101623.75;5042965;28;20432;-65
2024/02/29 02:46:05;;;;;;;19.03;11.20;;;;;;;2.05;100.00;101619.88;5044706;28;20052;-67
2024/02/29 02:48:31;;;;;;;27.50;12.30;;;;;;;2.13;100.00;101628.16;5042694;28;20404;-66
2024/02/29 02:50:56;;;;;;;22.67;11.97;;;;;;;2.09;100.00;101629.28;5040129;28;20037;-65
2024/02/29 02:53:22;;;;;;;25.07;11.50;;;;;;;2.17;100.00;101651.53;5042076;28;20549;-65
2024/02/29 02:55:47;;;;;;;20.00;10.67;;;;;;;2.25;100.00;101650.25;5041912;28;20077;-67
2024/02/29 02:58:13;;;;;;;23.70;11.40;;;;;;;2.31;100.00;101657.78;5041753;28;20064;-66
2024/02/29 03:00:38;;;;;;;24.83;12.40;;;;;;;2.34;100.00;101673.41;5027830;28;20049;-68
2024/02/29 03:03:04;;;;;;;22.77;10.67;;;;;;;2.36;100.00;101650.50;5045690;28;20401;-66
2024/02/29 03:05:30;;;;;;;24.97;11.43;;;;;;;2.45;100.00;101660.47;5036337;28;20037;-67
2024/02/29 03:07:56;;;;;;;22.03;11.43;;;;;;;2.11;100.00;101616.88;5042492;28;20389;-66
2024/02/29 03:10:21;;;;;;;21.73;12.33;;;;;;;2.05;100.00;101617.25;5040712;28;20491;-68
2024/02/29 03:12:48;;;;;;;23.00;11.63;;;;;;;2.12;100.00;101647.50;5043372;28;20128;-64
2024/02/29 03:15:15;;;;;;;24.17;12.70;;;;;;;2.22;100.00;101655.69;5043666;28;20427;-67
2024/02/29 03:17:41;;;;;;;23.47;12.30;;;;;;;2.09;100.00;101616.97;5040886;28;20267;-66
2024/02/29 03:20:12;;;;;;;20.43;11.33;;;;;;;2.34;100.00;101637.44;5038191;28;20295;-65
2024/02/29 03:22:41;;;;;;;22.33;11.57;;;;;;;2.18;100.00;101605.94;5024856;28;20789;-69
2024/02/29 03:25:07;;;;;;;23.07;11.77;;;;;;;2.49;100.00;101659.38;5043100;28;20280;-69
2024/02/29 03:27:34;;;;;;;26.37;10.97;;;;;;;2.55;100.00;101672.16;5037657;28;20354;-69
2024/02/29 03:30:00;;;;;;;20.50;11.10;;;;;;;2.53;100.00;101667.91;5042786;28;20862;-68
2024/02/29 03:32:26;;;;;;;19.97;10.60;;;;;;;2.47;100.00;101661.25;5038085;28;20276;-66
2024/02/29 03:34:51;;;;;;;21.07;10.60;;;;;;;2.49;100.00;101677.78;5038350;28;20064;-65
2024/02/29 03:37:18;;;;;;;24.67;12.63;;;;;;;2.45;100.00;101655.22;5040203;28;20041;-68
2024/02/29 03:39:44;;;;;;;24.57;11.70;;;;;;;2.58;100.00;101689.53;5040650;28;20037;-67
2024/02/29 03:42:11;;;;;;;21.47;10.97;;;;;;;2.54;100.00;101690.66;5037715;28;20355;-67
2024/02/29 03:44:37;;;;;;;24.97;13.20;;;;;;;2.41;100.00;101672.97;5041880;28;20295;-67
2024/02/29 03:47:04;;;;;;;22.50;12.40;;;;;;;2.44;100.00;101674.56;5016167;28;20291;-69
2024/02/29 03:49:29;;;;;;;29.10;13.07;;;;;;;2.62;100.00;101706.84;5045966;28;20287;-69
2024/02/29 03:51:55;;;;;;;26.77;14.03;;;;;;;2.51;100.00;101683.78;5041289;28;20302;-68
2024/02/29 03:54:20;;;;;;;24.27;12.90;;;;;;;2.51;100.00;101696.09;5041140;28;20373;-68
2024/02/29 03:56:47;;;;;;;28.03;14.47;;;;;;;2.44;100.00;101704.34;5048261;28;20041;-69
2024/02/29 03:59:12;;;;;;;26.73;12.33;;;;;;;2.45;100.00;101700.75;5038047;28;20040;-69
2024/02/29 04:01:38;;;;;;;24.63;13.03;;;;;;;2.41;100.00;101691.38;5041111;28;20269;-66
2024/02/29 04:04:04;;;;;;;26.20;13.50;;;;;;;2.61;100.00;101719.16;5041230;28;20040;-67
2024/02/29 04:06:29;;;;;;;29.07;14.00;;;;;;;2.63;100.00;101722.53;5040941;28;20167;-64
2024/02/29 04:08:55;;;;;;;33.03;15.53;;;;;;;2.47;100.00;101701.53;5044437;28;20393;-67
2024/02/29 04:11:22;;;;;;;32.50;15.20;;;;;;;2.52;100.00;101721.44;5047122;28;20530;-66
2024/02/29 04:13:47;;;;;;;31.03;14.13;;;;;;;2.53;100.00;101726.63;5021398;28;20045;-66
2024/02/29 04:16:13;;;;;;;27.27;13.97;;;;;;;2.46;100.00;101725.28;5034941;28;20287;-67
2024/02/29 04:18:39;;;;;;;27.37;13.77;;;;;;;2.41;100.00;101732.56;5043382;28;20448;-64
2024/02/29 04:21:05;;;;;;;23.37;11.83;;;;;;;2.35;100.00;101719.78;5040123;28;20507;-67
2024/02/29 04:23:30;;;;;;;22.30;11.90;;;;;;;2.36;100.00;101724.09;5036761;28;20294;-69
2024/02/29 04:25:58;;;;;;;22.83;13.67;;;;;;;2.29;100.00;101720.94;5037452;28;20060;-69
2024/02/29 04:28:27;;;;;;;25.38;13.43;;;;;;;2.36;100.00;101735.47;5038813;28;20044;-68
2024/02/29 04:30:52;;;;;;;26.45;13.70;;;;;;;2.34;100.00;101731.25;5039955;28;20041;-65
2024/02/29 04:33:18;;;;;;;27.17;14.70;;;;;;;2.10;100.00;101715.91;5038963;28;20539;-66
2024/02/29 04:35:43;;;;;;;21.93;12.50;;;;;;;2.18;100.00;101737.34;5039627;28;20230;-68
2024/02/29 04:38:09;;;;;;;26.77;12.73;;;;;;;2.23;100.00;101736.22;5040141;28;20045;-72
2024/02/29 04:40:35;;;;;;;24.50;12.17;;;;;;;2.20;100.00;101728.50;5044488;28;20052;-74
2024/02/29 04:43:07;;;;;;;24.57;12.20;;;;;;;2.04;100.00;101711.00;5038712;28;20041;-69
2024/02/29 04:45:36;;;;;;;27.27;12.87;;;;;;;2.11;100.00;101736.00;5039623;28;20040;-71
2024/02/29 04:48:02;;;;;;;28.07;14.77;;;;;;;2.01;100.00;101728.66;5039022;28;20723;-68
2024/02/29 04:50:27;;;;;;;27.60;13.60;;;;;;;1.90;100.00;101726.63;5044196;28;20386;-66
2024/02/29 04:52:53;;;;;;;27.13;13.67;;;;;;;1.92;100.00;101731.81;5043221;28;20276;-72
2024/02/29 04:55:22;;;;;;;34.77;15.33;;;;;;;2.00;100.00;101748.84;5045101;28;20042;-67
2024/02/29 04:57:47;;;;;;;31.30;14.45;;;;;;;2.01;100.00;101755.78;5042232;28;20123;-67
2024/02/29 05:00:13;;;;;;;36.37;15.73;;;;;;;1.80;100.00;101712.31;5041307;28;20127;-67
2024/02/29 05:02:39;;;;;;;38.37;16.53;;;;;;;2.04;100.00;101747.78;5041262;28;20045;-68
2024/02/29 05:05:06;;;;;;;33.23;15.87;;;;;;;2.10;100.00;101751.84;5038959;28;20287;-68
2024/02/29 05:07:32;;;;;;;28.27;14.67;;;;;;;2.17;100.00;101756.66;5044190;28;20120;-68
2024/02/29 05:09:57;;;;;;;34.70;16.27;;;;;;;1.99;100.00;101728.75;5041859;28;20333;-67
2024/02/29 05:12:26;;;;;;;31.00;15.07;;;;;;;2.11;100.00;101753.53;5038770;28;20094;-66
2024/02/29 05:14:52;;;;;;;30.60;15.07;;;;;;;2.17;100.00;101761.91;5049220;28;20033;-67
2024/02/29 05:17:18;;;;;;;31.93;15.77;;;;;;;2.11;100.00;101761.41;5043794;28;20268;-69
2024/02/29 05:19:44;;;;;;;31.73;15.70;;;;;;;2.13;100.00;101778.78;5043387;28;20296;-68
2024/02/29 05:22:10;;;;;;;30.97;16.33;;;;;;;2.13;100.00;101778.78;5034830;28;20493;-68
2024/02/29 05:24:35;;;;;;;32.93;17.10;;;;;;;1.48;100.00;101654.53;5033269;28;20048;-67
2024/02/29 05:27:02;;;;;;;29.53;15.53;;;;;;;2.27;100.00;101780.66;5037651;28;20106;-68
2024/02/29 05:29:28;;;;;;;29.83;16.47;;;;;;;2.19;100.00;101764.47;5038521;28;20124;-66
2024/02/29 05:31:54;;;;;;;31.43;15.83;;;;;;;2.41;100.00;101787.78;5036549;28;20375;-69
2024/02/29 05:34:20;;;;;;;28.53;16.17;;;;;;;2.41;100.00;101786.00;5047541;28;20298;-70
2024/02/29 05:36:47;;;;;;;30.50;15.47;;;;;;;2.38;100.00;101780.94;5042817;28;20036;-67
2024/02/29 05:39:16;;;;;;;35.73;18.37;;;;;;;2.38;100.00;101774.81;5039597;28;20069;-69
2024/02/29 05:41:44;;;;;;;25.67;15.63;;;;;;;2.43;100.00;101799.06;5027745;28;20279;-67
2024/02/29 05:44:10;;;;;;;25.83;16.47;;;;;;;2.46;100.00;101804.16;5036779;28;20632;-68
2024/02/29 05:46:36;;;;;;;27.97;15.80;;;;;;;2.34;100.00;101776.78;5034206;28;20037;-71
2024/02/29 05:49:02;;;;;;;27.90;15.70;;;;;;;2.32;100.00;101756.75;5036500;28;20381;-68
2024/02/29 05:51:27;;;;;;;31.27;16.13;;;;;;;2.40;100.00;101778.22;5036356;28;20100;-70
2024/02/29 05:53:53;;;;;;;29.50;16.43;;;;;;;2.35;100.00;101772.38;5035563;28;20037;-69
2024/02/29 05:56:19;;;;;;;30.07;16.83;;;;;;;2.55;100.00;101793.13;5045545;28;20115;-70
2024/02/29 05:58:45;;;;;;;28.27;16.27;;;;;;;2.63;100.00;101817.22;5042694;28;20355;-72
2024/02/29 06:01:10;;;;;;;28.37;16.67;;;;;;;2.42;100.00;101776.34;5043960;28;20114;-68
2024/02/29 06:03:37;;;;;;;34.07;18.67;;;;;;;2.54;100.00;101780.91;5054072;28;20120;-71
2024/02/29 06:06:04;;;;;;;24.57;14.80;;;;;;;2.74;100.00;101825.34;5035187;28;20220;-73
2024/02/29 06:08:30;;;;;;;25.23;14.83;;;;;;;2.58;100.00;101824.50;5037114;28;20291;-73
2024/02/29 06:10:56;;;;;;;25.33;15.40;;;;;;;2.57;100.00;101822.81;5040155;28;20305;-64
2024/02/29 06:13:22;;;;;;;24.97;15.53;;;;;;;2.61;100.00;101818.25;5046316;28;20095;-74
2024/02/29 06:15:47;;;;;;;24.80;16.33;;;;;;;2.57;100.00;101812.28;5021339;28;20292;-73
2024/02/29 06:18:13;;;;;;;24.83;15.70;;;;;;;2.59;100.00;101810.41;5043785;28;20059;-74
2024/02/29 06:20:39;;;;;;;22.77;14.60;;;;;;;2.40;100.00;101786.94;5039352;28;20061;-74
2024/02/29 06:23:05;;;;;;;24.40;14.67;;;;;;;2.58;100.00;101819.25;5037791;28;20283;-74
2024/02/29 06:25:32;;;;;;;24.00;14.43;;;;;;;2.73;100.00;101836.81;5044334;28;20128;-69
2024/02/29 06:27:58;;;;;;;22.20;14.13;;;;;;;2.65;100.00;101811.88;5044123;28;20333;-67
2024/02/29 06:30:31;;;;;;;21.73;14.17;;;;;;;2.86;100.00;101854.53;5042864;28;20303;-68
2024/02/29 06:33:00;;;;;;;22.20;12.83;;;;;;;2.88;100.00;101847.38;5032461;28;20394;-69
2024/02/29 06:35:29;;;;;;;;;;;;;;;2.89;100.00;101851.72;5035586;28;20414;-73
2024/02/29 06:37:55;;;;;;;20.88;12.50;;;;;;;2.61;100.00;101821.72;5040373;28;20390;-72
2024/02/29 06:40:21;;;;;;;19.27;13.17;;;;;;;2.83;100.00;101855.53;5035903;28;20041;-71
2024/02/29 06:42:48;;;;;;;23.50;14.17;;;;;;;2.66;100.00;101822.31;5038430;28;20313;-71
2024/02/29 06:45:15;;;;;;;22.27;12.73;;;;;;;2.71;100.00;101838.69;5038103;28;20284;-69
2024/02/29 06:47:42;;;;;;;19.90;12.60;;;;;;;2.73;100.00;101855.22;5041446;28;20294;-72
2024/02/29 06:50:09;;;;;;;21.83;12.80;;;;;;;2.31;100.00;101804.97;5044416;28;20330;-71
2024/02/29 06:52:34;;;;;;;23.73;13.30;;;;;;;2.59;100.00;101851.63;5044355;28;20275;-70
2024/02/29 06:55:00;;;;;;;18.60;12.03;;;;;;;2.68;100.00;101883.56;5034611;28;20279;-72
2024/02/29 06:57:26;;;;;;;23.37;13.00;;;;;;;2.51;100.00;101865.22;5038370;28;20039;-71
2024/02/29 06:59:52;;;;;;;21.00;12.63;;;;;;;2.28;100.00;101861.19;5037744;28;20045;-70
2024/02/29 07:02:17;;;;;;;24.40;11.97;;;;;;;2.28;100.00;101874.34;5038846;28;20287;-71
2024/02/29 07:04:44;;;;;;;27.27;12.30;;;;;;;2.30;100.00;101883.00;5045682;28;20427;-68
2024/02/29 07:07:09;;;;;;;23.60;11.27;;;;;;;2.20;100.00;101859.91;5044439;28;20393;-69
2024/02/29 07:09:35;;;;;;;23.17;12.00;;;;;;;2.39;100.00;101894.81;5024124;28;20290;-67
2024/02/29 07:12:01;;;;;;;25.90;11.50;;;;;;;2.40;100.00;101889.47;5052669;28;20037;-70
2024/02/29 07:14:27;;;;;;;20.80;10.73;;;;;;;2.36;100.00;101881.84;5040784;28;20083;-67
2024/02/29 07:16:52;;;;;;;22.23;11.67;;;;;;;2.44;100.00;101890.16;5040539;28;20038;-67
2024/02/29 07:19:18;;;;;;;20.27;10.53;;;;;;;2.31;100.00;101884.69;5039351;28;20041;-69
2024/02/29 07:21:44;;;;;;;19.70;10.53;;;;;;;2.31;100.00;101889.09;5036967;28;20033;-68
2024/02/29 07:24:09;;;;;;;19.70;10.97;;;;;;;2.22;100.00;101879.09;5036682;28;20358;-69
2024/02/29 07:26:41;;;;;;;18.07;8.77;;;;;;;2.26;100.00;101891.13;5032780;28;20065;-67
2024/02/29 07:29:07;;;;;;;15.90;7.73;;;;;;;2.39;100.00;101910.59;5032970;28;20037;-69
2024/02/29 07:31:33;;;;;;;11.37;7.20;;;;;;;2.35;100.00;101899.41;5030774;28;20282;-68
2024/02/29 07:33:59;;;;;;;12.63;7.67;;;;;;;2.35;100.00;101896.78;5033673;28;20044;-69
2024/02/29 07:36:24;;;;;;;12.80;7.57;;;;;;;2.51;100.00;101912.56;5042478;28;20204;-67
2024/02/29 07:38:50;;;;;;;14.97;8.93;;;;;;;2.47;100.00;101911.03;5031333;28;20037;-70
2024/02/29 07:41:15;;;;;;;11.13;7.17;;;;;;;2.43;100.00;101904.25;5037896;28;20049;-69
2024/02/29 07:43:41;;;;;;;14.07;7.63;;;;;;;2.44;100.00;101900.66;5042101;28;20044;-68
2024/02/29 07:46:07;;;;;;;10.40;7.37;;;;;;;2.48;100.00;101917.97;5033435;28;20038;-70
2024/02/29 07:48:32;;;;;;;9.87;6.67;;;;;;;2.38;100.00;101924.66;5029176;28;20033;-69
2024/02/29 07:50:58;;;;;;;8.17;6.20;;;;;;;2.39;100.00;101918.47;5034139;28;20071;-70
2024/02/29 07:53:23;;;;;;;8.77;6.13;;;;;;;2.22;100.00;101915.88;5039766;28;20040;-71
2024/02/29 07:55:49;;;;;;;7.43;6.23;;;;;;;2.32;100.00;101927.63;5035372;28;20033;-69
2024/02/29 07:58:14;;;;;;;13.13;7.83;;;;;;;2.21;100.00;101920.28;5034334;28;20128;-67
2024/02/29 08:00:40;;;;;;;7.87;6.30;;;;;;;2.30;100.00;101939.97;5033698;28;20375;-68
2024/02/29 08:03:06;;;;;;;7.60;6.80;;;;;;;1.52;100.00;101810.09;5033837;28;20029;-67
2024/02/29 08:05:34;;;;;;;7.97;6.10;;;;;;;2.24;100.00;101917.50;5043601;28;20132;-70
2024/02/29 08:08:00;;;;;;;7.18;6.32;;;;;;;2.40;100.00;101946.47;5033517;28;20048;-67
2024/02/29 08:10:26;;;;;;;9.10;6.47;;;;;;;2.14;100.00;101917.13;5033076;28;20033;-69
2024/02/29 08:12:52;;;;;;;7.80;6.37;;;;;;;2.27;100.00;101945.41;5036408;28;20045;-69
2024/02/29 08:15:17;;;;;;;7.23;6.43;;;;;;;2.37;100.00;101951.91;5034035;28;20417;-69
2024/02/29 08:17:43;;;;;;;7.37;5.87;;;;;;;2.39;100.00;101955.28;5030828;28;20037;-69
2024/02/29 08:20:10;;;;;;;7.77;6.43;;;;;;;2.42;100.00;101948.09;5036983;28;20568;-67
2024/02/29 08:22:36;;;;;;;9.43;5.87;;;;;;;2.41;100.00;101950.78;5033047;28;20035;-71
2024/02/29 08:25:02;;;;;;;8.73;6.60;;;;;;;2.54;100.00;101954.47;5025267;28;20283;-69
2024/02/29 08:27:32;;;;;;;9.50;5.97;;;;;;;2.67;100.00;101973.09;5038727;28;20081;-71
2024/02/29 08:29:58;;;;;;;7.28;5.55;;;;;;;2.59;100.00;101965.56;5037625;28;20038;-72
2024/02/29 08:32:24;;;;;;;6.40;5.23;;;;;;;2.67;100.00;101965.19;5037629;28;20041;-71
2024/02/29 08:34:50;;;;;;;6.37;4.80;;;;;;;2.47;100.00;101939.94;5039079;28;20282;-73
2024/02/29 08:37:15;;;;;;;6.63;4.90;;;;;;;2.51;100.00;101970.41;5042657;28;20040;-73
2024/02/29 08:39:41;;;;;;;6.23;5.17;;;;;;;2.55;100.00;101958.78;5036671;28;20049;-73
2024/02/29 08:42:09;;;;;;;7.00;4.97;;;;;;;2.69;100.00;101979.97;5039057;28;20040;-73
2024/02/29 08:44:35;;;;;;;5.18;4.68;;;;;;;2.48;100.00;101953.00;5039791;28;20037;-69
2024/02/29 08:47:04;;;;;;;5.03;4.60;;;;;;;2.66;100.00;101990.66;5035269;28;20121;-72
2024/02/29 08:49:30;;;;;;;7.50;4.78;;;;;;;2.44;100.00;101975.16;5037563;28;20940;-69
2024/02/29 08:51:55;;;;;;;5.90;4.73;;;;;;;2.45;100.00;101955.81;5039102;28;20033;-69
2024/02/29 08:54:21;;;;;;;6.20;5.30;;;;;;;2.44;100.00;101972.50;5041654;28;20039;-71
2024/02/29 08:56:46;;;;;;;5.63;4.40;;;;;;;2.42;100.00;101963.84;5035696;28;20448;-72
2024/02/29 08:59:12;;;;;;;4.90;4.23;;;;;;;2.59;100.00;102009.44;5018146;28;20037;-70
2024/02/29 09:01:38;;;;;;;5.17;4.67;;;;;;;2.27;100.00;101938.38;5039248;28;20060;-69
2024/02/29 09:04:03;;;;;;;4.40;3.90;;;;;;;2.60;100.00;101959.41;5038757;28;20037;-70
2024/02/29 09:06:29;;;;;;;4.23;3.77;;;;;;;2.50;100.00;101929.25;5041304;28;20123;-70
2024/02/29 09:08:55;;;;;;;4.63;3.90;;;;;;;2.77;100.00;101988.28;5039134;28;20057;-71
2024/02/29 09:11:20;;;;;;;4.00;3.37;;;;;;;2.69;99.04;101982.59;5037293;28;20124;-69
2024/02/29 09:13:46;;;;;;;4.20;3.27;;;;;;;2.72;98.21;102010.50;5045553;28;20044;-72
2024/02/29 09:16:12;;;;;;;3.47;3.00;;;;;;;2.65;96.31;102003.88;5037448;28;20095;-70
2024/02/29 09:18:39;;;;;;;3.27;2.93;;;;;;;2.58;96.71;102016.47;5042214;28;20037;-70
2024/02/29 09:21:05;;;;;;;8.17;3.23;;;;;;;2.55;97.20;102000.88;5035222;28;20640;-70
2024/02/29 09:23:30;;;;;;;4.97;4.47;;;;;;;2.69;98.70;102016.78;5034088;28;20284;-72
2024/02/29 09:25:57;;;;;;;5.23;3.83;;;;;;;2.73;98.83;101993.78;5042533;28;20095;-72
2024/02/29 09:28:23;;;;;;;5.23;3.33;;;;;;;3.08;97.64;102028.72;5040348;28;20049;-71
2024/02/29 09:30:48;;;;;;;4.07;3.23;;;;;;;3.04;96.99;102022.78;5041422;28;21357;-71
2024/02/29 09:33:14;;;;;;;3.37;3.07;;;;;;;3.08;94.89;102018.19;5035882;28;20117;-68
2024/02/29 09:35:39;;;;;;;4.03;2.90;;;;;;;3.02;94.09;102023.78;5039052;28;20069;-71
2024/02/29 09:38:05;;;;;;;4.97;3.07;;;;;;;2.95;94.66;102048.75;5038349;28;20041;-69
2024/02/29 09:40:31;;;;;;;4.80;2.90;;;;;;;2.75;93.82;102011.19;5040089;28;20052;-68
2024/02/29 09:42:56;;;;;;;3.63;2.40;;;;;;;2.92;93.54;102043.66;5038006;28;20033;-68
2024/02/29 09:45:23;;;;;;;4.93;2.70;;;;;;;2.16;94.41;101901.28;5038648;28;20037;-69
2024/02/29 09:47:50;;;;;;;4.83;3.00;;;;;;;2.98;94.07;102032.78;5037788;28;20041;-69
2024/02/29 09:50:16;;;;;;;4.00;3.30;;;;;;;3.13;93.50;102045.09;5041315;28;20302;-66
2024/02/29 09:52:42;;;;;;;4.07;3.07;;;;;;;3.19;93.36;102036.06;5039110;28;20295;-67
2024/02/29 09:55:18;;;;;;;4.23;3.33;;;;;;;3.30;92.58;102042.41;5039946;28;20046;-69
2024/02/29 09:57:45;;;;;;;4.67;3.63;;;;;;;3.41;92.96;102041.81;5035772;28;20367;-69
2024/02/29 10:00:11;;;;;;;3.13;2.80;;;;;;;3.39;91.30;102034.00;5034685;28;20300;-66
2024/02/29 10:02:42;;;;;;;2.67;2.30;;;;;;;3.27;88.93;102042.59;5038860;28;20761;-68
2024/02/29 10:05:11;;;;;;;2.97;2.20;;;;;;;3.29;90.21;102055.66;5038224;28;20315;-67
2024/02/29 10:07:46;;;;;;;2.53;2.03;;;;;;;2.35;88.81;101911.69;5036234;28;20296;-72
2024/02/29 10:10:12;;;;;;;1.90;1.70;;;;;;;3.11;88.71;102050.44;5034191;28;20295;-69
2024/02/29 10:12:38;;;;;;;5.67;3.97;;;;;;;3.03;89.56;102036.03;5039752;28;20763;-69
2024/02/29 10:15:06;;;;;;;2.63;2.43;;;;;;;3.03;88.34;102025.50;5036914;28;20386;-71
2024/02/29 10:17:34;;;;;;;2.33;1.90;;;;;;;3.24;88.85;102053.28;5027304;28;20037;-67
2024/02/29 10:20:00;;;;;;;1.70;1.60;;;;;;;3.16;89.26;102036.19;5042644;28;20394;-69
2024/02/29 10:22:25;;;;;;;4.27;2.17;;;;;;;3.22;89.15;102052.53;5036760;28;20037;-68
2024/02/29 10:24:51;;;;;;;4.80;2.80;;;;;;;3.18;89.06;102056.25;5048508;28;20053;-69
2024/02/29 10:27:17;;;;;;;4.67;3.17;;;;;;;3.30;90.05;102067.91;5041544;28;20045;-69
2024/02/29 10:29:43;;;;;;;3.00;2.57;;;;;;;3.20;89.52;102054.41;5039218;28;20052;-70
2024/02/29 10:32:09;;;;;;;2.67;2.37;;;;;;;2.83;89.37;102031.81;5040695;28;20025;-67
2024/02/29 10:34:37;;;;;;;4.73;2.90;;;;;;;3.03;91.06;102073.72;5039721;28;20412;-68
2024/02/29 10:37:03;;;;;;;4.05;2.50;;;;;;;2.99;91.72;102055.53;5036982;28;20075;-72
2024/02/29 10:39:29;;;;;;;2.77;2.30;;;;;;;3.24;91.97;102087.50;5036494;28;20045;-69
2024/02/29 10:41:55;;;;;;;2.73;2.53;;;;;;;3.31;90.62;102109.09;5038091;28;20087;-69
2024/02/29 10:44:21;;;;;;;3.50;2.87;;;;;;;3.24;91.50;102099.81;5036863;28;20041;-69
2024/02/29 10:46:53;;;;;;;7.23;2.77;;;;;;;3.27;92.73;102082.06;5035154;28;20284;-70
2024/02/29 10:49:45;;;;;;;4.53;3.40;;;;;;;3.46;93.09;102102.97;5030061;28;20284;-70
2024/02/29 10:52:19;;;;;;;3.27;2.83;;;;;;;3.20;91.68;102096.50;5040452;28;20288;-71
2024/02/29 10:55:06;;;;;;;2.67;2.43;;;;;;;2.98;93.41;102078.38;5017620;28;20445;-69
2024/02/29 10:57:51;;;;;;;7.80;3.43;;;;;;;3.02;94.46;102108.00;5030481;28;20346;-73
2024/02/29 11:00:17;;;;;;;3.80;2.93;;;;;;;3.02;94.12;102129.06;5030763;28;20296;-70
2024/02/29 11:02:44;;;;;;;3.93;2.83;;;;;;;2.99;94.85;102126.59;5035971;28;20487;-72
2024/02/29 11:05:11;;;;;;;4.20;2.80;;;;;;;2.42;96.00;102086.59;5015119;28;20047;-69
2024/02/29 11:07:37;;;;;;;5.67;2.90;;;;;;;2.53;97.66;102120.22;5032963;28;20671;-71
2024/02/29 11:10:04;;;;;;;3.77;3.47;;;;;;;2.44;99.35;102132.91;5030810;28;20275;-69
2024/02/29 11:12:30;;;;;;;3.90;3.60;;;;;;;2.44;98.88;102132.06;5037227;28;20272;-74